Time;durP1;ratioP1;P1;durP2;ratioP2;P2;SDS_P1;SDS_P2;PMS_P1;PMS_P2;Temp;Humidity;BMP_temperature;BMP_pressure;BME280_temperature;BME280_humidity;BME280_pressure;Samples;Min_cycle;Max_cycle;Signal;HPM_P1;HPM_P2
2021/06/23 05:32:10;;;;;;;76.90;54.95;;;;;;;21.93;87.34;100231.14;1739011;76;25890;-75
2021/06/23 05:34:37;;;;;;;74.05;53.35;;;;;;;22.01;87.38;100236.87;1710170;81;25860;-75
2021/06/23 05:37:04;;;;;;;69.62;52.45;;;;;;;22.11;87.87;100239.47;1707891;82;25732;-75
2021/06/23 05:39:30;;;;;;;68.35;51.75;;;;;;;22.20;88.16;100230.23;1650244;84;26167;-74
2021/06/23 05:41:57;;;;;;;62.08;49.33;;;;;;;22.34;88.73;100227.56;1700864;82;25745;-74
2021/06/23 05:44:23;;;;;;;67.03;51.60;;;;;;;22.47;88.42;100229.34;1705660;81;27377;-75
2021/06/23 05:46:50;;;;;;;62.58;50.60;;;;;;;22.64;89.00;100239.41;1711635;82;26028;-75
2021/06/23 05:49:16;;;;;;;63.83;51.10;;;;;;;22.78;88.35;100244.13;1693703;83;26614;-75
2021/06/23 05:51:44;;;;;;;62.75;49.42;;;;;;;22.87;87.51;100243.95;1681191;83;26039;-76
2021/06/23 05:54:11;;;;;;;62.78;50.17;;;;;;;22.94;87.77;100246.70;1702059;82;26403;-75
2021/06/23 05:56:37;;;;;;;60.70;50.30;;;;;;;23.10;88.06;100245.53;1716918;81;27326;-75
2021/06/23 05:59:04;;;;;;;62.62;48.02;;;;;;;23.25;88.36;100251.83;1707960;81;25733;-74
2021/06/23 06:01:31;;;;;;;67.10;49.48;;;;;;;23.40;88.11;100255.36;1707836;82;25741;-74
2021/06/23 06:03:57;;;;;;;55.83;47.03;;;;;;;23.52;88.20;100253.55;1703560;81;25756;-75
2021/06/23 06:06:24;;;;;;;50.78;42.75;;;;;;;23.61;87.60;100252.52;1704749;82;26517;-75
2021/06/23 06:08:51;;;;;;;49.20;41.00;;;;;;;23.66;86.92;100253.49;1694037;83;27310;-74
2021/06/23 06:11:18;;;;;;;50.25;39.33;;;;;;;23.69;86.40;100258.22;1708901;82;25663;-75
2021/06/23 06:13:45;;;;;;;48.00;40.63;;;;;;;23.72;85.82;100259.98;1710071;82;25672;-76
2021/06/23 06:16:11;;;;;;;53.68;37.88;;;;;;;23.81;86.30;100254.27;1707356;81;26664;-76
2021/06/23 06:18:38;;;;;;;54.15;41.05;;;;;;;23.96;86.35;100268.03;1683697;82;26149;-79
2021/06/23 06:21:06;;;;;;;42.75;37.23;;;;;;;24.15;87.06;100272.28;1677816;82;28317;-77
2021/06/23 06:23:32;;;;;;;45.80;39.33;;;;;;;24.35;87.15;100276.72;1667395;83;26638;-76
2021/06/23 06:25:59;;;;;;;46.48;38.25;;;;;;;24.47;86.42;100279.59;1683589;82;25739;-74
2021/06/23 06:28:26;;;;;;;46.88;39.88;;;;;;;24.56;85.54;100286.28;1704646;81;26205;-75
2021/06/23 06:30:52;;;;;;;46.08;40.55;;;;;;;24.59;85.07;100282.70;1708408;81;26639;-74
2021/06/23 06:33:19;;;;;;;50.92;41.88;;;;;;;24.64;84.64;100281.50;1712776;81;27313;-75
2021/06/23 06:35:45;;;;;;;44.77;39.98;;;;;;;24.68;84.22;100280.09;1694281;82;25824;-75
2021/06/23 06:38:11;;;;;;;50.45;40.17;;;;;;;24.76;84.01;100287.15;1701728;81;25824;-78
2021/06/23 06:40:38;;;;;;;81.30;44.27;;;;;;;24.86;84.33;100291.81;1692092;82;25915;-75
2021/06/23 06:43:04;;;;;;;62.30;39.23;;;;;;;25.02;84.82;100287.73;1694347;82;25860;-76
2021/06/23 06:45:32;;;;;;;48.60;37.95;;;;;;;25.17;84.32;100288.58;1713561;81;27301;-78
2021/06/23 06:47:59;;;;;;;41.75;36.68;;;;;;;25.31;84.16;100293.22;1708851;81;25663;-78
2021/06/23 06:50:25;;;;;;;39.70;35.45;;;;;;;25.44;83.45;100289.35;1678090;83;26041;-78
2021/06/23 06:52:52;;;;;;;42.38;36.73;;;;;;;25.56;83.27;100292.78;1668400;84;25822;-78
2021/06/23 06:55:21;;;;;;;43.87;34.20;;;;;;;25.70;83.08;100285.11;1689962;83;25707;-78
2021/06/23 06:57:51;;;;;;;42.85;35.25;;;;;;;25.85;82.51;100291.88;1700367;83;26968;-79
2021/06/23 07:00:20;;;;;;;36.03;32.13;;;;;;;25.98;82.15;100289.38;1707239;82;25749;-78
2021/06/23 07:02:47;;;;;;;36.38;32.48;;;;;;;26.06;80.80;100289.47;1710901;81;26477;-79
2021/06/23 07:05:14;;;;;;;36.75;32.30;;;;;;;26.16;80.31;100287.77;1692055;82;25909;-81
2021/06/23 07:07:41;;;;;;;37.23;33.20;;;;;;;26.26;80.09;100282.69;1710589;81;25717;-81
2021/06/23 07:10:09;;;;;;;35.68;32.17;;;;;;;26.39;80.24;100279.53;1706008;83;27324;-81
2021/06/23 07:12:37;;;;;;;40.38;31.97;;;;;;;26.52;79.55;100286.66;1696161;82;25762;-82
2021/06/23 07:15:05;;;;;;;39.08;31.95;;;;;;;26.66;79.41;100280.14;1708401;82;25801;-82
2021/06/23 07:17:32;;;;;;;37.93;30.15;;;;;;;26.81;78.95;100289.03;1708387;82;26913;-81
2021/06/23 07:19:59;;;;;;;34.33;30.72;;;;;;;26.95;78.70;100288.02;1700894;81;25839;-81
2021/06/23 07:22:25;;;;;;;32.83;29.37;;;;;;;27.09;78.20;100289.76;1689686;80;27335;-81
2021/06/23 07:24:53;;;;;;;29.67;26.42;;;;;;;27.21;77.12;100285.78;1712994;81;25887;-81
2021/06/23 07:27:21;;;;;;;28.47;25.43;;;;;;;27.33;76.25;100303.08;1707432;81;26709;-81
2021/06/23 07:29:49;;;;;;;28.32;25.02;;;;;;;27.39;75.50;100299.97;1711125;81;26470;-81
2021/06/23 07:32:29;;;;;;;44.55;27.93;;;;;;;27.57;75.99;100299.05;1632051;84;26582;-79
2021/06/23 07:37:13;;;;;;;29.65;23.80;;;;;;;27.92;75.31;100294.63;1714858;81;26444;-80
2021/06/23 07:39:40;;;;;;;25.52;22.93;;;;;;;28.11;74.91;100291.06;1710136;81;25798;-79
2021/06/23 07:42:28;;;;;;;30.20;22.40;;;;;;;28.27;74.22;100297.27;1703167;81;25871;-73
2021/06/23 07:45:03;;;;;;;24.90;22.40;;;;;;;28.44;73.41;100296.69;1746636;78;26256;-70
2021/06/23 07:47:29;;;;;;;23.98;21.25;;;;;;;28.63;72.39;100287.36;1740163;79;28031;-69
2021/06/23 07:49:54;;;;;;;23.27;20.88;;;;;;;28.79;71.95;100297.12;1748147;78;25859;-69
2021/06/23 07:55:44;;;;;;;22.35;19.62;;;;;;;29.16;70.81;100301.17;1734145;79;25925;-70
2021/06/23 08:08:10;;;;;;;18.25;16.35;;;;;;;29.59;68.80;100304.23;1753087;79;25851;-69
2021/06/23 08:11:21;;;;;;;22.98;17.20;;;;;;;30.40;66.26;100297.41;1751456;79;26112;-67
2021/06/23 08:13:47;;;;;;;17.77;15.60;;;;;;;30.62;65.77;100299.68;1724967;80;27295;-67
2021/06/23 08:16:15;;;;;;;16.85;15.03;;;;;;;30.87;65.19;100304.46;1773008;78;25992;-67
2021/06/23 08:18:41;;;;;;;18.25;15.35;;;;;;;31.09;64.49;100301.77;1788844;77;25916;-68
2021/06/23 08:21:08;;;;;;;18.10;15.03;;;;;;;31.33;63.58;100317.33;1755765;79;27818;-67
2021/06/23 08:23:35;;;;;;;24.60;16.85;;;;;;;31.51;62.79;100317.52;1760398;78;25904;-66
2021/06/23 08:26:02;;;;;;;17.82;16.10;;;;;;;31.69;62.38;100321.69;1787974;76;27349;-67
2021/06/23 08:28:28;;;;;;;17.95;16.05;;;;;;;31.85;61.49;100325.69;1805370;77;27129;-68
2021/06/23 08:30:55;;;;;;;18.82;14.75;;;;;;;32.01;60.79;100326.09;1773299;78;27049;-67
2021/06/23 08:33:25;;;;;;;17.42;14.55;;;;;;;32.14;60.31;100324.03;1796382;77;25950;-67
2021/06/23 08:35:51;;;;;;;24.52;16.20;;;;;;;32.33;59.60;100327.70;1781216;78;25855;-67
2021/06/23 08:38:18;;;;;;;17.00;15.30;;;;;;;32.49;58.84;100332.30;1795872;77;27297;-67
2021/06/23 08:40:46;;;;;;;17.82;15.70;;;;;;;32.61;58.51;100330.67;1778361;78;26286;-67
2021/06/23 08:43:20;;;;;;;17.35;15.53;;;;;;;32.74;57.66;100334.14;1794367;78;25806;-66
2021/06/23 08:45:47;;;;;;;17.25;15.30;;;;;;;32.87;56.80;100339.61;1725104;79;25781;-65
2021/06/23 08:48:14;;;;;;;18.98;17.32;;;;;;;32.92;56.27;100341.80;1797189;77;26055;-66
2021/06/23 08:50:42;;;;;;;19.42;17.42;;;;;;;33.06;56.27;100341.05;1744575;79;29431;-66
2021/06/23 08:53:08;;;;;;;20.23;18.32;;;;;;;33.16;55.26;100341.89;1751275;79;25887;-67
2021/06/23 08:55:36;;;;;;;16.45;14.75;;;;;;;33.22;55.21;100337.21;1762149;78;25790;-67
2021/06/23 08:58:06;;;;;;;15.65;13.48;;;;;;;33.28;54.80;100336.13;1789051;77;26019;-66
2021/06/23 09:00:33;;;;;;;15.50;13.60;;;;;;;33.41;54.20;100334.59;1796624;77;25742;-66
2021/06/23 09:03:05;;;;;;;14.70;13.35;;;;;;;33.54;53.73;100337.23;1766282;79;29512;-66
2021/06/23 09:05:54;;;;;;;15.68;14.07;;;;;;;33.75;53.71;100338.95;1770859;78;25759;-67
2021/06/23 09:08:36;;;;;;;17.98;16.25;;;;;;;34.01;52.66;100349.22;1785343;77;26464;-67
2021/06/23 09:11:20;;;;;;;18.60;17.00;;;;;;;34.20;52.18;100350.75;1728681;80;25914;-67
2021/06/23 09:13:48;;;;;;;17.82;16.27;;;;;;;34.34;52.19;100344.33;1741927;78;25950;-67
2021/06/23 09:16:18;;;;;;;18.40;14.50;;;;;;;34.45;51.88;100343.20;1752102;79;30559;-68
2021/06/23 09:18:47;;;;;;;15.28;12.37;;;;;;;34.65;50.86;100355.30;1764703;78;25845;-66
2021/06/23 09:21:18;;;;;;;17.48;13.32;;;;;;;34.79;50.29;100360.87;1784433;78;25862;-67
2021/06/23 09:23:56;;;;;;;16.02;13.10;;;;;;;34.93;49.75;100361.56;1792996;77;25769;-66
2021/06/23 09:26:26;;;;;;;14.30;12.65;;;;;;;35.11;49.01;100365.51;1734729;79;25862;-67
2021/06/23 09:29:16;;;;;;;14.40;13.13;;;;;;;35.26;48.36;100389.50;1739350;79;27845;-67
2021/06/23 09:32:02;;;;;;;14.83;13.43;;;;;;;35.26;48.36;100389.50;1782678;77;25901;-68
2021/06/23 09:34:56;;;;;;;15.98;12.63;;;;;;;35.33;47.78;100368.84;1782494;78;26492;-68
2021/06/23 09:37:33;;;;;;;14.65;11.93;;;;;;;35.56;47.47;100368.52;1796464;77;26214;-67
2021/06/23 09:40:17;;;;;;;15.93;11.95;;;;;;;35.70;46.78;100362.13;1789680;77;25832;-70
2021/06/23 09:42:56;;;;;;;13.03;11.80;;;;;;;35.85;46.53;100372.80;1796545;77;27478;-67
2021/06/23 09:45:24;;;;;;;12.75;11.55;;;;;;;35.88;45.10;100364.04;1774706;78;26450;-63
2021/06/23 09:48:01;;;;;;;13.75;12.05;;;;;;;35.90;45.07;100370.72;1790446;77;25815;-62
2021/06/23 09:50:31;;;;;;;14.67;12.60;;;;;;;35.99;45.44;100367.67;1782936;77;25814;-62
2021/06/23 09:53:21;;;;;;;15.15;11.38;;;;;;;36.08;44.17;100370.39;1779281;77;26408;-62
2021/06/23 09:55:50;;;;;;;13.22;11.80;;;;;;;36.17;44.08;100366.72;1773769;78;27463;-62
2021/06/23 09:58:21;;;;;;;13.35;11.83;;;;;;;36.12;44.27;100369.58;1733922;79;26876;-63
2021/06/23 10:01:13;;;;;;;14.73;13.05;;;;;;;36.21;44.52;100365.88;1734918;79;25966;-62
2021/06/23 10:04:12;;;;;;;13.00;11.70;;;;;;;36.42;43.52;100366.76;1728298;80;25766;-62
2021/06/23 10:06:43;;;;;;;15.55;12.07;;;;;;;36.67;43.24;100363.18;1642805;84;25919;-61
2021/06/23 10:09:25;;;;;;;20.82;13.05;;;;;;;36.88;43.10;100376.08;1659965;83;27347;-62
2021/06/23 10:11:57;;;;;;;18.12;12.05;;;;;;;37.13;43.10;100374.61;1665218;83;26493;-62
2021/06/23 10:14:27;;;;;;;16.50;12.10;;;;;;;37.38;42.58;100365.34;1664581;83;25972;-62
2021/06/23 10:16:56;;;;;;;15.18;11.97;;;;;;;37.46;41.60;100370.70;1665094;83;25931;-62
2021/06/23 10:19:26;;;;;;;15.48;13.03;;;;;;;37.61;41.77;100367.77;1662429;83;26503;-61
2021/06/23 10:21:55;;;;;;;13.68;12.43;;;;;;;37.66;41.49;100364.27;1677257;83;27504;-62
2021/06/23 10:24:24;;;;;;;13.88;11.38;;;;;;;37.88;41.24;100364.36;1665312;83;25909;-62
2021/06/23 10:26:53;;;;;;;11.80;10.68;;;;;;;38.01;40.92;100365.39;1663276;83;26094;-62
2021/06/23 10:29:33;;;;;;;11.15;9.60;;;;;;;38.08;40.30;100362.12;1665745;83;25763;-62
2021/06/23 10:32:02;;;;;;;11.88;9.83;;;;;;;38.28;39.60;100365.53;1656051;83;25870;-61
2021/06/23 10:34:29;;;;;;;13.55;9.95;;;;;;;38.36;38.34;100372.89;1673886;83;27400;-61
2021/06/23 10:36:57;;;;;;;21.12;12.37;;;;;;;38.24;38.25;100369.97;1658664;84;27279;-62
2021/06/23 10:39:46;;;;;;;17.90;11.43;;;;;;;38.32;38.56;100370.30;1652686;84;25650;-61
2021/06/23 10:42:12;;;;;;;;;;;;;;;38.43;38.67;100372.42;1593022;87;25973;-62
2021/06/23 10:44:46;;;;;;;16.87;11.57;;;;;;;38.62;38.62;100376.47;1703447;81;26092;-61
2021/06/23 10:47:37;;;;;;;23.22;11.00;;;;;;;38.51;38.21;100374.17;1731714;81;27331;-62
2021/06/23 10:50:05;;;;;;;13.15;11.00;;;;;;;38.21;38.06;100366.76;1714328;81;26002;-61
2021/06/23 10:52:41;;;;;;;11.90;10.78;;;;;;;37.82;38.38;100368.55;1708732;80;25945;-62
2021/06/23 10:55:24;;;;;;;16.37;10.75;;;;;;;37.50;38.27;100371.25;1701841;82;26406;-61
2021/06/23 10:57:55;;;;;;;12.93;10.65;;;;;;;37.33;39.06;100368.87;1701846;81;25943;-63
2021/06/23 11:00:30;;;;;;;13.43;10.68;;;;;;;37.13;38.60;100368.20;1685255;83;28757;-62
2021/06/23 11:03:08;;;;;;;14.05;10.72;;;;;;;36.87;38.92;100368.88;1687957;83;25858;-61
2021/06/23 11:05:47;;;;;;;12.45;10.95;;;;;;;36.60;39.13;100367.94;1731474;80;25613;-61
2021/06/23 11:08:33;;;;;;;12.55;11.05;;;;;;;36.24;39.17;100372.75;1717688;81;26582;-61
2021/06/23 11:11:07;;;;;;;16.05;12.58;;;;;;;35.90;39.56;100370.72;1711295;81;25964;-61
2021/06/23 11:13:38;;;;;;;19.30;13.25;;;;;;;35.58;39.89;100363.18;1708044;81;27923;-61
2021/06/23 11:16:11;;;;;;;13.32;11.60;;;;;;;35.27;40.26;100363.72;1660253;84;26100;-63
2021/06/23 11:18:41;;;;;;;18.20;12.95;;;;;;;34.97;40.66;100363.59;1720732;80;27576;-61
2021/06/23 11:21:22;;;;;;;12.93;11.70;;;;;;;34.71;41.15;100359.63;1709487;81;26552;-62
2021/06/23 11:24:01;;;;;;;13.20;11.78;;;;;;;34.53;41.43;100368.89;1696100;81;25874;-62
2021/06/23 11:26:38;;;;;;;14.95;12.55;;;;;;;34.23;42.33;100354.02;1708591;81;28121;-72
2021/06/23 11:29:20;;;;;;;13.88;12.53;;;;;;;33.97;43.08;100341.58;1709437;81;25472;-73
2021/06/23 11:31:55;;;;;;;13.28;11.95;;;;;;;33.97;43.08;100341.58;1697594;80;25882;-72
2021/06/23 11:34:43;;;;;;;12.78;11.48;;;;;;;33.97;43.83;100333.95;1708247;81;26381;-73
2021/06/23 11:37:17;;;;;;;15.50;14.00;;;;;;;33.97;43.83;100333.95;1713051;81;26619;-73
2021/06/23 11:39:44;;;;;;;12.93;11.55;;;;;;;33.83;43.58;100324.17;1712771;81;27348;-72
2021/06/23 11:42:12;;;;;;;13.93;12.10;;;;;;;33.83;43.58;100324.17;1705150;81;25915;-74
2021/06/23 11:44:43;;;;;;;14.25;11.57;;;;;;;33.87;43.95;100323.38;1717402;81;25980;-75
2021/06/23 11:47:11;;;;;;;17.67;11.60;;;;;;;33.86;43.84;100333.02;1725418;81;26594;-74
2021/06/23 11:49:39;;;;;;;14.05;11.03;;;;;;;33.71;43.71;100335.55;1740955;81;25811;-74
2021/06/23 11:52:08;;;;;;;12.63;10.97;;;;;;;33.53;43.82;100338.49;1737964;80;27318;-66
2021/06/23 11:54:35;;;;;;;12.40;11.40;;;;;;;33.38;44.21;100341.13;1749046;80;25424;-67
2021/06/23 11:57:02;;;;;;;28.52;12.28;;;;;;;33.28;44.64;100345.17;1716522;80;25858;-68
2021/06/23 11:59:29;;;;;;;19.32;12.10;;;;;;;33.14;44.65;100338.12;1733100;81;26647;-69
2021/06/23 12:02:01;;;;;;;33.13;14.95;;;;;;;33.06;45.05;100336.22;1717920;81;25880;-71
2021/06/23 12:04:35;;;;;;;126.65;27.67;;;;;;;33.02;45.70;100344.01;1693054;81;27393;-70
2021/06/23 12:07:04;;;;;;;124.87;25.90;;;;;;;33.02;45.70;100344.01;1714367;81;25763;-72
2021/06/23 12:09:30;;;;;;;18.40;12.00;;;;;;;32.94;45.68;100349.74;1702531;81;26448;-71
2021/06/23 12:11:58;;;;;;;12.90;11.33;;;;;;;32.84;45.40;100348.16;1709388;81;25885;-69
2021/06/23 12:14:25;;;;;;;13.77;12.43;;;;;;;32.66;45.53;100346.06;1696069;81;25883;-69
2021/06/23 12:16:51;;;;;;;14.15;11.57;;;;;;;32.54;46.14;100344.30;1708504;82;27311;-69
2021/06/23 12:19:17;;;;;;;16.95;11.65;;;;;;;32.51;46.29;100342.41;1715161;81;25685;-69
2021/06/23 12:21:44;;;;;;;15.32;13.58;;;;;;;32.50;46.45;100337.27;1703545;82;25860;-68
2021/06/23 12:24:10;;;;;;;15.43;13.48;;;;;;;32.39;46.52;100325.88;1687674;83;27899;-69
2021/06/23 12:26:36;;;;;;;16.15;14.03;;;;;;;32.30;46.93;100330.64;1710030;81;25850;-68
2021/06/23 12:29:03;;;;;;;15.68;14.25;;;;;;;32.31;47.53;100341.38;1702192;81;27395;-69
2021/06/23 12:31:30;;;;;;;22.65;15.10;;;;;;;32.32;47.49;100357.57;1723228;81;26537;-69
2021/06/23 12:33:56;;;;;;;17.07;15.25;;;;;;;32.28;47.63;100361.88;1722627;81;26651;-69
2021/06/23 12:36:23;;;;;;;16.87;14.18;;;;;;;32.19;47.63;100363.23;1714560;81;26151;-69
2021/06/23 12:38:49;;;;;;;15.72;14.18;;;;;;;32.06;47.52;100354.91;1687742;81;25781;-68
2021/06/23 12:41:15;;;;;;;15.98;14.28;;;;;;;31.94;47.55;100349.55;1728181;80;27473;-69
2021/06/23 12:43:42;;;;;;;16.42;14.80;;;;;;;31.83;47.88;100348.52;1701423;81;25975;-70
2021/06/23 12:46:09;;;;;;;15.85;14.30;;;;;;;31.81;48.38;100350.99;1719000;81;25942;-68
2021/06/23 12:48:36;;;;;;;16.05;14.07;;;;;;;31.84;48.61;100356.28;1727335;81;25779;-71
2021/06/23 12:51:02;;;;;;;15.35;13.95;;;;;;;31.90;49.14;100364.26;1722288;80;26022;-70
2021/06/23 12:53:29;;;;;;;15.00;13.40;;;;;;;32.05;49.12;100367.31;1734738;80;27490;-70
2021/06/23 12:55:55;;;;;;;17.50;13.68;;;;;;;32.34;49.91;100368.45;1728934;81;25917;-70
2021/06/23 12:58:23;;;;;;;18.57;14.20;;;;;;;32.82;49.32;100358.42;1727792;80;26583;-69
2021/06/23 13:00:52;;;;;;;15.85;13.75;;;;;;;33.24;48.68;100357.16;1720177;81;25874;-70
2021/06/23 13:03:19;;;;;;;18.67;14.40;;;;;;;33.53;48.29;100351.11;1719398;81;25977;-70
2021/06/23 13:05:46;;;;;;;16.02;13.98;;;;;;;33.91;47.45;100347.69;1709437;81;27418;-70
2021/06/23 13:08:12;;;;;;;16.65;14.28;;;;;;;34.07;47.11;100350.13;1708639;80;25884;-70
2021/06/23 13:10:38;;;;;;;15.72;14.28;;;;;;;34.28;46.59;100358.23;1727910;80;25837;-70
2021/06/23 13:13:05;;;;;;;16.75;14.98;;;;;;;34.72;45.46;100373.23;1722264;81;25972;-68
2021/06/23 13:15:31;;;;;;;15.13;13.62;;;;;;;34.72;45.46;100373.23;1729333;81;25908;-70
2021/06/23 13:17:58;;;;;;;15.38;13.88;;;;;;;34.91;45.63;100371.09;1724277;81;27455;-69
2021/06/23 13:20:25;;;;;;;14.90;13.48;;;;;;;35.02;44.73;100367.75;1720520;81;26046;-69
2021/06/23 13:22:54;;;;;;;15.78;14.10;;;;;;;35.13;44.31;100384.09;1729757;81;25779;-70
2021/06/23 13:25:20;;;;;;;14.55;13.25;;;;;;;35.15;44.00;100366.13;1722961;80;26774;-70
2021/06/23 13:27:48;;;;;;;19.05;12.93;;;;;;;35.21;43.74;100371.22;1730070;81;25756;-70
2021/06/23 13:30:17;;;;;;;16.45;14.68;;;;;;;35.37;43.94;100377.70;1719292;80;27364;-69
2021/06/23 13:32:43;;;;;;;15.03;13.48;;;;;;;35.59;42.95;100377.38;1727376;81;25961;-69
2021/06/23 13:35:12;;;;;;;17.00;14.47;;;;;;;35.70;42.75;100393.07;1696024;81;26478;-69
2021/06/23 13:37:38;;;;;;;;;;;;;;;35.50;42.43;100377.62;1698114;82;25926;-70
2021/06/23 13:40:07;;;;;;;21.60;14.28;;;;;;;35.43;42.08;100391.25;1699772;81;26473;-71
2021/06/23 13:42:34;;;;;;;16.00;14.25;;;;;;;35.29;42.70;100380.88;1699390;81;28077;-71
2021/06/23 13:45:00;;;;;;;17.00;13.50;;;;;;;35.18;42.78;100377.82;1706190;81;26298;-70
2021/06/23 13:47:28;;;;;;;17.45;14.00;;;;;;;35.09;42.86;100368.82;1727855;81;25756;-71
2021/06/23 13:49:57;;;;;;;15.83;13.47;;;;;;;35.19;43.09;100362.49;1706555;81;26164;-70
2021/06/23 13:52:26;;;;;;;15.60;14.00;;;;;;;35.24;42.89;100361.09;1701320;81;25797;-69
2021/06/23 13:54:52;;;;;;;16.05;14.35;;;;;;;35.14;42.56;100365.36;1704194;81;28493;-71
2021/06/23 13:57:19;;;;;;;17.00;13.98;;;;;;;34.96;42.67;100360.61;1698312;82;25823;-71
2021/06/23 13:59:46;;;;;;;19.02;14.80;;;;;;;34.72;42.68;100369.02;1717402;81;25886;-70
2021/06/23 14:02:13;;;;;;;20.00;14.47;;;;;;;34.47;43.00;100363.78;1723485;80;26670;-69
2021/06/23 14:04:39;;;;;;;15.30;13.95;;;;;;;34.33;43.11;100382.85;1722045;80;26476;-70
2021/06/23 14:07:06;;;;;;;16.80;13.83;;;;;;;33.98;43.45;100370.56;1722990;81;28372;-69
2021/06/23 14:09:33;;;;;;;18.92;14.47;;;;;;;33.75;43.81;100376.22;1728695;81;25854;-69
2021/06/23 14:12:00;;;;;;;14.85;13.40;;;;;;;33.55;44.22;100380.85;1721322;80;25901;-70
2021/06/23 14:14:27;;;;;;;21.27;14.58;;;;;;;33.35;44.73;100379.13;1714222;80;26253;-71
2021/06/23 14:16:53;;;;;;;17.52;14.43;;;;;;;32.99;45.51;100381.34;1697823;82;25839;-69
2021/06/23 14:19:19;;;;;;;18.10;14.58;;;;;;;32.99;45.51;100381.34;1732942;80;27330;-69
2021/06/23 14:21:46;;;;;;;18.45;14.58;;;;;;;32.98;45.93;100387.41;1732515;81;26571;-70
2021/06/23 14:24:12;;;;;;;18.07;14.00;;;;;;;33.09;46.28;100394.77;1741631;80;25821;-69
2021/06/23 14:26:39;;;;;;;17.35;15.43;;;;;;;33.09;46.28;100394.77;1735539;81;25966;-70
2021/06/23 14:29:07;;;;;;;15.83;14.20;;;;;;;32.92;46.47;100378.84;1715337;81;25912;-69
2021/06/23 14:31:34;;;;;;;18.20;16.40;;;;;;;32.87;46.71;100375.25;1708135;81;27375;-70
2021/06/23 14:34:00;;;;;;;14.58;12.80;;;;;;;32.89;46.77;100373.53;1711766;81;25863;-70
2021/06/23 14:36:27;;;;;;;14.98;13.03;;;;;;;32.89;46.92;100370.73;1725879;81;26671;-71
2021/06/23 14:38:54;;;;;;;15.25;13.48;;;;;;;32.94;47.14;100378.52;1670981;84;25819;-69
2021/06/23 14:41:21;;;;;;;15.25;13.05;;;;;;;33.00;46.98;100380.72;1701371;81;25907;-71
2021/06/23 14:43:48;;;;;;;19.37;13.45;;;;;;;33.06;46.84;100373.27;1717858;81;27375;-67
2021/06/23 14:46:14;;;;;;;16.77;12.90;;;;;;;33.07;46.75;100367.84;1713324;81;25744;-67
2021/06/23 14:48:41;;;;;;;13.95;12.55;;;;;;;33.12;46.79;100365.20;1710909;81;26135;-67
2021/06/23 14:51:07;;;;;;;14.68;13.25;;;;;;;33.06;46.86;100365.64;1717448;80;25886;-67
2021/06/23 14:53:33;;;;;;;15.58;13.32;;;;;;;33.12;46.93;100375.00;1726843;81;25945;-67
2021/06/23 14:56:00;;;;;;;14.63;13.22;;;;;;;33.10;47.14;100373.30;1709137;81;27929;-67
2021/06/23 14:58:26;;;;;;;15.20;13.20;;;;;;;33.15;46.82;100374.71;1707769;81;27267;-67
2021/06/23 15:00:52;;;;;;;15.13;12.93;;;;;;;33.10;46.78;100370.49;1722834;81;26605;-67
2021/06/23 15:03:19;;;;;;;16.32;13.00;;;;;;;33.06;46.52;100375.45;1714561;81;25837;-67
2021/06/23 15:05:45;;;;;;;16.37;13.28;;;;;;;32.96;46.70;100375.27;1706786;82;25907;-68
2021/06/23 15:08:11;;;;;;;15.08;13.30;;;;;;;32.91;46.97;100378.67;1710672;81;27375;-66
2021/06/23 15:10:38;;;;;;;15.03;13.50;;;;;;;32.87;46.98;100380.22;1693924;81;26349;-67
2021/06/23 15:13:04;;;;;;;19.05;12.85;;;;;;;32.85;47.07;100381.31;1716393;81;25793;-68
2021/06/23 15:15:31;;;;;;;15.32;12.88;;;;;;;32.85;47.33;100376.34;1716073;80;25927;-68
2021/06/23 15:17:59;;;;;;;15.65;13.00;;;;;;;32.81;47.08;100382.08;1656658;84;26224;-68
2021/06/23 15:20:26;;;;;;;15.83;13.57;;;;;;;32.76;47.15;100385.48;1683460;83;28042;-69
2021/06/23 15:22:52;;;;;;;18.82;13.00;;;;;;;32.67;47.16;100393.20;1733490;81;26417;-69
2021/06/23 15:25:19;;;;;;;14.83;13.10;;;;;;;32.68;47.67;100397.58;1720850;80;25821;-68
2021/06/23 15:27:46;;;;;;;16.35;13.10;;;;;;;32.70;47.63;100399.29;1707602;81;26651;-68
2021/06/23 15:30:14;;;;;;;15.20;13.70;;;;;;;32.64;47.20;100394.14;1694952;82;26668;-69
2021/06/23 15:32:41;;;;;;;14.28;12.73;;;;;;;32.57;47.26;100397.17;1703188;81;28040;-68
2021/06/23 15:35:09;;;;;;;17.73;13.35;;;;;;;32.52;47.36;100385.97;1716551;81;26156;-67
2021/06/23 15:37:35;;;;;;;20.08;12.82;;;;;;;32.48;47.56;100388.73;1715195;81;26029;-67
2021/06/23 15:40:04;;;;;;;14.50;12.85;;;;;;;32.42;47.62;100387.77;1706324;81;25693;-65
2021/06/23 15:42:34;;;;;;;15.28;13.72;;;;;;;32.30;47.67;100390.20;1670219;83;26813;-66
2021/06/23 15:45:00;;;;;;;;;;;;;;;32.21;47.85;100404.13;1664099;82;27346;-67
2021/06/23 15:47:27;;;;;;;10.70;9.45;;;;;;;32.00;47.36;100443.42;1718437;81;27208;-67
2021/06/23 15:49:58;;;;;;;13.53;8.35;;;;;;;31.56;46.00;100462.28;1725104;81;25837;-68
2021/06/23 15:52:23;;;;;;;15.88;7.28;;;;;;;30.81;45.83;100482.13;1710547;81;26302;-69
2021/06/23 15:54:49;;;;;;;16.80;7.20;;;;;;;30.03;45.56;100504.00;1736827;80;25922;-69
2021/06/23 15:57:15;;;;;;;13.05;6.40;;;;;;;29.28;46.88;100509.38;1730554;81;29420;-70
2021/06/23 15:59:42;;;;;;;13.85;7.28;;;;;;;28.56;47.56;100525.41;1723576;81;27167;-70
2021/06/23 16:02:08;;;;;;;11.38;5.90;;;;;;;27.93;48.72;100486.59;1717565;81;25885;-67
2021/06/23 16:04:35;;;;;;;11.45;5.75;;;;;;;27.56;49.42;100475.86;1695693;82;25983;-70
2021/06/23 16:07:01;;;;;;;12.82;5.35;;;;;;;27.24;50.43;100465.22;1721448;81;25907;-69
2021/06/23 16:09:28;;;;;;;13.38;6.58;;;;;;;26.95;50.84;100473.37;1690110;83;27433;-72
2021/06/23 16:11:54;;;;;;;13.75;5.92;;;;;;;26.76;52.16;100476.16;1695650;82;25937;-69
2021/06/23 16:14:20;;;;;;;9.10;5.05;;;;;;;26.55;52.97;100477.20;1633817;85;25507;-71
2021/06/23 16:16:48;;;;;;;6.62;3.83;;;;;;;26.19;52.64;100493.45;1661108;84;25908;-72
2021/06/23 16:19:15;;;;;;;6.40;3.72;;;;;;;25.74;53.08;100499.73;1732074;80;25851;-70
2021/06/23 16:21:46;;;;;;;13.53;4.78;;;;;;;25.34;53.17;100477.87;1716577;81;27441;-66
2021/06/23 16:24:12;;;;;;;6.90;3.97;;;;;;;24.88;53.16;100447.09;1741296;81;26055;-67
2021/06/23 16:26:37;;;;;;;9.08;4.15;;;;;;;24.59;54.27;100421.56;1710370;81;26568;-69
2021/06/23 16:29:05;;;;;;;8.40;3.45;;;;;;;24.44;54.88;100427.70;1676240;81;26274;-70
2021/06/23 16:31:31;;;;;;;8.13;4.40;;;;;;;24.36;55.28;100422.00;1707232;81;26467;-70
2021/06/23 16:33:58;;;;;;;7.37;3.37;;;;;;;24.30;56.26;100420.86;1695700;81;28409;-69
2021/06/23 16:36:26;;;;;;;9.98;3.70;;;;;;;24.24;56.81;100396.37;1695832;81;25910;-69
2021/06/23 16:38:53;;;;;;;6.83;4.03;;;;;;;24.23;57.07;100385.14;1737680;80;25974;-70
2021/06/23 16:41:19;;;;;;;8.85;4.05;;;;;;;24.26;57.14;100373.86;1713152;81;25981;-70
2021/06/23 16:43:46;;;;;;;6.83;3.60;;;;;;;24.31;57.01;100369.91;1712172;81;25776;-71
2021/06/23 16:46:12;;;;;;;6.17;4.20;;;;;;;24.34;56.74;100378.78;1733500;80;27388;-69
2021/06/23 16:48:39;;;;;;;11.83;3.90;;;;;;;24.40;56.72;100396.54;1725196;81;25826;-69
2021/06/23 16:51:06;;;;;;;10.60;3.98;;;;;;;24.48;56.99;100410.50;1734618;80;25536;-69
2021/06/23 16:53:33;;;;;;;11.00;4.30;;;;;;;24.58;56.82;100411.08;1724111;80;26534;-71
2021/06/23 16:56:01;;;;;;;12.18;3.90;;;;;;;24.66;56.46;100395.25;1718186;80;25939;-72
2021/06/23 16:58:32;;;;;;;9.63;4.33;;;;;;;24.75;55.97;100396.97;1694725;81;27446;-68
2021/06/23 17:01:01;;;;;;;17.32;4.37;;;;;;;24.82;55.65;100393.37;1730589;80;26423;-68
2021/06/23 17:03:28;;;;;;;9.40;3.60;;;;;;;24.91;55.44;100384.62;1690851;81;25842;-67
2021/06/23 17:05:56;;;;;;;4.78;3.05;;;;;;;24.94;54.65;100383.25;1711890;81;25935;-68
2021/06/23 17:08:23;;;;;;;7.78;3.60;;;;;;;24.95;54.43;100383.42;1698198;81;25687;-69